• Join FlightAware (Why Join?)
  • Login
  • US Flag 
07:32AM EDT


 

Airport Tracker/Info


-or-


 

Live Flight TrackerFlight Track Log ✈ ADR704 ✈ 09-May-2013 ✈ LJLJ / LJU - LATI / TIA

Flight Track Log - Related Links

Times and Time Zones

All times are in EDT time to prevent confusion due to time zone crossing. See the ADR704 flight status page for this flight to view local times or setup timezone preferences in your user account.

Time Position Orientation Groundspeed Altitude Reporting Facility
EDT Latitude Longitude Course Direction KTS MPH feet Rate Location/Type
07:50AM 45.7900 14.9808 140° Southeast  Level Estimated
07:51AM 45.7174 15.0673 140° Southeast  Level Estimated
07:52AM 45.6449 15.1534 140° Southeast  Level Estimated
07:53AM 45.5722 15.2394 140° Southeast  Level Estimated
07:54AM 45.4995 15.3251 140° Southeast  Level Estimated
07:55AM 45.4267 15.4107 140° Southeast  Level Estimated
07:56AM 45.3539 15.4960 141° Southeast  Level Estimated
07:57AM 45.2810 15.5810 141° Southeast  Level Estimated
07:58AM 45.2080 15.6659 141° Southeast  Level Estimated
07:59AM 45.1350 15.7506 141° Southeast  Level Estimated
08:00AM 45.0619 15.8350 141° Southeast  Level Estimated
08:01AM 44.9887 15.9192 141° Southeast  Level Estimated
08:02AM 44.9155 16.0032 141° Southeast  Level Estimated
08:03AM 44.8423 16.0870 141° Southeast  Level Estimated
08:04AM 44.7689 16.1705 141° Southeast  Level Estimated
08:05AM 44.6955 16.2539 141° Southeast  Level Estimated
08:06AM 44.6221 16.3370 141° Southeast  Level Estimated
08:07AM 44.5485 16.4200 141° Southeast  Level Estimated
08:08AM 44.4749 16.5027 141° Southeast  Level Estimated
08:09AM 44.4013 16.5852 141° Southeast  Level Estimated
08:10AM 44.3276 16.6675 141° Southeast  Level Estimated
08:11AM 44.2538 16.7497 141° Southeast  Level Estimated
08:12AM 44.1800 16.8316 141° Southeast  Level Estimated
08:13AM 44.1062 16.9133 142° Southeast  Level Estimated
08:14AM 44.0322 16.9947 142° Southeast  Level Estimated
08:15AM 43.9582 17.0760 142° Southeast  Level Estimated
08:16AM 43.8842 17.1571 142° Southeast  Level Estimated
08:17AM 43.8101 17.2380 142° Southeast  Level Estimated
08:18AM 43.7359 17.3187 142° Southeast  Level Estimated
08:19AM 43.6617 17.3992 142° Southeast  Level Estimated
08:20AM 43.5874 17.4795 142° Southeast  Level Estimated
08:21AM 43.5131 17.5595 142° Southeast  Level Estimated
08:22AM 43.4387 17.6394 142° Southeast  Level Estimated
08:23AM 43.3643 17.7191 142° Southeast  Level Estimated
08:24AM 43.2898 17.7986 142° Southeast  Level Estimated
08:25AM 43.2152 17.8779 142° Southeast  Level Estimated
08:26AM 43.1406 17.9570 142° Southeast  Level Estimated
08:27AM 43.0660 18.0360 142° Southeast  Level Estimated
08:28AM 42.9913 18.1147 142° Southeast  Level Estimated
08:29AM 42.9165 18.1932 142° Southeast  Level Estimated
08:30AM 42.8417 18.2716 142° Southeast  Level Estimated
08:31AM 42.7668 18.3497 143° Southeast  Level Estimated
08:32AM 42.6919 18.4277 143° Southeast  Level Estimated
08:33AM 42.6169 18.5055 143° Southeast  Level Estimated
08:34AM 42.5419 18.5830 143° Southeast  Level Estimated
08:35AM 42.4668 18.6604 143° Southeast  Level Estimated
08:36AM 42.3916 18.7377 143° Southeast  Level Estimated
08:37AM 42.3164 18.8147 143° Southeast  Level Estimated
08:38AM 42.2412 18.8916 143° Southeast  Level Estimated
08:39AM 42.1659 18.9682 143° Southeast  Level Estimated
08:40AM 42.0906 19.0447 143° Southeast  Level Estimated
08:41AM 42.0152 19.1210 143° Southeast  Level Estimated
08:42AM 41.9398 19.1971 143° Southeast  Level Estimated
08:43AM 41.8643 19.2731 143° Southeast  Level Estimated
08:44AM 41.7887 19.3488 143° Southeast  Level Estimated
08:45AM 41.7131 19.4244 143° Southeast  Level Estimated
08:46AM 41.6375 19.4998 143° Southeast  Level Estimated
08:47AM 41.5618 19.5751 143° Southeast  Level Estimated
08:48AM 41.4861 19.6501 143° Southeast  Level Estimated
08:49AM 41.4147 19.7206 143° Southeast  Level Estimated
08:50AM 41.4147 19.7206 21° North  Level Estimated
08:51AM 41.4147 19.7206 21° North  Level Estimated
08:52AM 41.4147 19.7206 21° North  Level Estimated
08:53AM 41.4147 19.7206 21° North  Level Estimated
08:54AM 41.4147 19.7206 21° North  Level Estimated
08:55AM 41.4147 19.7206 21° North  Level Estimated
08:56AM 41.4147 19.7206 21° North  Level Estimated
08:57AM 41.4147 19.7206 21° North  Level Estimated
08:58AM 41.4147 19.7206 21° North  Level Estimated
08:59AM 41.4147 19.7206 21° North  Level Estimated
09:00AM 41.4147 19.7206 21° North  Level Estimated
09:01AM 41.4147 19.7206 21° North  Level Estimated
09:02AM 41.4147 19.7206 21° North  Level Estimated
09:03AM 41.4147 19.7206 21° North  Level Estimated
09:04AM 41.4147 19.7206 21° North  Level Estimated
09:05AM 41.4147 19.7206 21° North  Level Estimated